createdAt,value
2023-03-28T00:00:19.465Z,99.06
2023-03-28T00:03:06.384Z,97.88
2023-03-28T00:05:40.201Z,97.84
2023-03-28T00:08:27.360Z,97.20
2023-03-28T00:11:20.226Z,96.96
2023-03-28T00:14:08.481Z,97.25
2023-03-28T00:16:53.375Z,97.24
2023-03-28T00:19:47.353Z,96.93
2023-03-28T00:22:37.393Z,96.72
2023-03-28T00:25:21.371Z,96.36
2023-03-28T00:28:09.426Z,96.04
2023-03-28T00:30:49.389Z,97.61
2023-03-28T00:33:43.358Z,96.11
2023-03-28T00:36:39.379Z,97.58
2023-03-28T00:39:26.362Z,97.18
2023-03-28T00:42:01.571Z,97.63
2023-03-28T00:44:51.405Z,98.15
2023-03-28T00:47:47.438Z,97.32
2023-03-28T00:50:48.377Z,96.76
2023-03-28T00:53:35.467Z,98.08
2023-03-28T00:56:20.350Z,97.90
2023-03-28T00:59:19.416Z,97.63
2023-03-28T01:02:06.445Z,97.90
2023-03-28T01:04:53.376Z,96.90
2023-03-28T01:07:47.369Z,96.55
2023-03-28T01:10:20.612Z,97.44
2023-03-28T01:13:09.454Z,98.20
2023-03-28T01:15:42.672Z,96.31
2023-03-28T01:18:30.370Z,97.59
2023-03-28T01:21:28.096Z,98.23
2023-03-28T01:24:39.454Z,98.30
2023-03-28T01:27:29.532Z,96.53
2023-03-28T01:30:43.454Z,96.59
2023-03-28T01:33:36.121Z,95.93
2023-03-28T01:36:59.403Z,96.87
2023-03-28T01:40:21.254Z,95.52
2023-03-28T01:43:20.407Z,97.69
2023-03-28T01:46:19.439Z,97.03
2023-03-28T01:49:25.390Z,97.75
2023-03-28T01:52:29.362Z,97.59
2023-03-28T01:55:17.201Z,98.04
2023-03-28T01:58:49.384Z,99.46
2023-03-28T02:01:43.430Z,97.71
2023-03-28T02:04:22.497Z,97.31
2023-03-28T02:07:10.378Z,98.53
2023-03-28T02:09:51.396Z,98.15
2023-03-28T02:12:50.388Z,99.13
2023-03-28T02:15:39.418Z,99.29
2023-03-28T02:18:21.567Z,99.96
2023-03-28T02:21:13.389Z,100.00
2023-03-28T02:23:50.508Z,100.00
2023-03-28T02:26:38.391Z,98.88
2023-03-28T02:29:12.848Z,99.13
2023-03-28T02:31:59.444Z,99.31
2023-03-28T02:34:32.599Z,100.00
2023-03-28T02:37:32.435Z,100.00
2023-03-28T02:40:17.497Z,100.00
2023-03-28T02:43:13.489Z,100.00
2023-03-28T02:46:07.631Z,100.00
2023-03-28T02:49:00.477Z,100.00
2023-03-28T02:52:41.430Z,100.00
2023-03-28T02:55:44.424Z,100.00
2023-03-28T02:58:40.412Z,100.00
2023-03-28T03:01:14.732Z,100.00
2023-03-28T03:04:02.458Z,100.00
2023-03-28T03:06:43.399Z,100.00
2023-03-28T03:09:30.426Z,100.00
2023-03-28T03:12:10.393Z,99.32
2023-03-28T03:15:07.455Z,100.00
2023-03-28T03:17:54.516Z,100.00
2023-03-28T03:20:27.544Z,100.00
2023-03-28T03:23:14.428Z,100.00
2023-03-28T03:25:50.641Z,100.00
2023-03-28T03:28:38.425Z,100.00
2023-03-28T03:31:18.442Z,100.00
2023-03-28T03:34:12.473Z,100.00
2023-03-28T03:37:02.478Z,100.00
2023-03-28T03:39:42.427Z,100.00
2023-03-28T03:42:29.416Z,100.00
2023-03-28T03:45:09.493Z,100.00
2023-03-28T03:48:03.482Z,100.00
2023-03-28T03:50:50.415Z,100.00
2023-03-28T03:53:23.517Z,100.00
2023-03-28T03:56:11.475Z,100.00
2023-03-28T03:58:51.403Z,100.00
2023-03-28T04:01:46.489Z,100.00
2023-03-28T04:04:40.497Z,100.00
2023-03-28T04:07:27.445Z,99.83
2023-03-28T04:10:00.671Z,100.00
2023-03-28T04:12:47.436Z,100.00
2023-03-28T04:15:20.664Z,100.00
2023-03-28T04:18:09.524Z,100.00
2023-03-28T04:20:43.699Z,100.00
2023-03-28T04:23:50.429Z,100.00
2023-03-28T04:26:44.420Z,100.00
2023-03-28T04:29:37.448Z,100.00
2023-03-28T04:32:12.931Z,100.00
2023-03-28T04:35:07.438Z,100.00
2023-03-28T04:37:55.450Z,100.00
2023-03-28T04:40:29.392Z,100.00
2023-03-28T04:43:16.433Z,100.00
2023-03-28T04:45:49.594Z,100.00
2023-03-28T04:48:36.458Z,100.00
2023-03-28T04:51:10.678Z,100.00
2023-03-28T04:53:57.449Z,100.00
2023-03-28T04:56:30.525Z,100.00
2023-03-28T04:59:18.468Z,100.00
2023-03-28T05:01:52.735Z,100.00
2023-03-28T05:04:39.522Z,100.00
2023-03-28T05:07:13.540Z,100.00
2023-03-28T05:10:00.482Z,100.00
2023-03-28T05:12:40.477Z,100.00
2023-03-28T05:15:27.438Z,100.00
2023-03-28T05:18:00.792Z,100.00
2023-03-28T05:20:47.444Z,100.00
2023-03-28T05:23:27.453Z,100.00
2023-03-28T05:26:14.446Z,100.00
2023-03-28T05:28:47.589Z,100.00
2023-03-28T05:31:37.488Z,100.00
2023-03-28T05:34:10.763Z,100.00
2023-03-28T05:36:57.483Z,100.00
2023-03-28T05:39:30.533Z,100.00
2023-03-28T05:42:17.439Z,100.00
2023-03-28T05:44:50.638Z,100.00
2023-03-28T05:47:37.479Z,100.00
2023-03-28T05:50:18.464Z,100.00
2023-03-28T05:53:12.479Z,100.00
2023-03-28T05:55:59.479Z,100.00
2023-03-28T05:58:32.640Z,100.00
2023-03-28T06:01:19.452Z,100.00
2023-03-28T06:03:52.649Z,100.00
2023-03-28T06:06:42.517Z,100.00
2023-03-28T06:09:15.697Z,100.00
2023-03-28T06:12:02.465Z,100.00
2023-03-28T06:14:36.546Z,100.00
2023-03-28T06:17:23.462Z,100.00
2023-03-28T06:19:56.787Z,100.00
2023-03-28T06:22:44.517Z,100.00
2023-03-28T06:25:17.592Z,100.00
2023-03-28T06:28:04.496Z,100.00
2023-03-28T06:30:39.989Z,100.00
2023-03-28T06:33:26.455Z,100.00
2023-03-28T06:35:59.713Z,100.00
2023-03-28T06:38:46.553Z,100.00
2023-03-28T06:41:19.674Z,100.00
2023-03-28T06:44:06.496Z,100.00
2023-03-28T06:46:39.747Z,100.00
2023-03-28T06:49:26.523Z,100.00
2023-03-28T06:51:59.550Z,100.00
2023-03-28T06:54:48.481Z,100.00
2023-03-28T06:57:22.692Z,100.00
2023-03-28T07:00:10.586Z,100.00
2023-03-28T07:02:50.578Z,100.00
2023-03-28T07:05:37.502Z,100.00
2023-03-28T07:08:17.537Z,100.00
2023-03-28T07:11:11.478Z,100.00
2023-03-28T07:14:05.499Z,99.85
2023-03-28T07:16:52.574Z,99.98
2023-03-28T07:19:25.581Z,100.00
2023-03-28T07:22:12.500Z,100.00
2023-03-28T07:24:45.661Z,100.00
2023-03-28T07:27:32.507Z,99.58
2023-03-28T07:30:12.492Z,99.80
2023-03-28T07:33:14.135Z,99.99
2023-03-28T07:35:57.559Z,100.00
2023-03-28T07:38:46.536Z,99.44
2023-03-28T07:41:24.501Z,100.00
2023-03-28T07:44:11.514Z,100.00
2023-03-28T07:46:44.590Z,100.00
2023-03-28T07:49:31.504Z,100.00
2023-03-28T07:52:05.920Z,100.00
2023-03-28T07:54:55.499Z,100.00
2023-03-28T07:57:28.588Z,100.00
2023-03-28T08:00:19.620Z,100.00
2023-03-28T08:02:52.735Z,100.00
2023-03-28T08:05:44.554Z,100.00
2023-03-28T08:08:24.517Z,100.00
2023-03-28T08:11:18.523Z,100.00
2023-03-28T08:14:12.512Z,100.00
2023-03-28T08:17:06.559Z,100.00
2023-03-28T08:20:00.552Z,100.00
2023-03-28T08:22:47.517Z,100.00
2023-03-28T08:25:20.842Z,100.00
2023-03-28T08:28:07.570Z,100.00
2023-03-28T08:30:41.696Z,100.00
2023-03-28T08:33:28.536Z,100.00
2023-03-28T08:36:02.686Z,100.00
2023-03-28T08:38:53.583Z,100.00
2023-03-28T08:42:12.525Z,98.45
2023-03-28T08:45:17.534Z,95.23
2023-03-28T08:48:11.794Z,93.21
2023-03-28T08:51:16.511Z,91.03
2023-03-28T08:54:00.883Z,90.15
2023-03-28T08:56:52.595Z,85.53
2023-03-28T08:59:29.683Z,82.83
2023-03-28T09:02:26.630Z,86.25
2023-03-28T09:05:17.749Z,82.55
2023-03-28T09:08:32.644Z,82.01
2023-03-28T09:11:11.721Z,80.98
2023-03-28T09:14:17.522Z,78.29
2023-03-28T09:17:12.644Z,80.64
2023-03-28T09:19:59.609Z,86.01
2023-03-28T09:22:47.021Z,88.19
2023-03-28T09:25:42.534Z,86.35
2023-03-28T09:28:37.538Z,82.71
2023-03-28T09:31:27.671Z,85.23
2023-03-28T09:34:09.525Z,87.23
2023-03-28T09:37:07.506Z,88.68
2023-03-28T09:40:00.529Z,91.26
2023-03-28T09:43:11.695Z,91.36
2023-03-28T09:46:09.615Z,91.73
2023-03-28T09:48:51.686Z,92.52
2023-03-28T09:51:45.572Z,91.73
2023-03-28T09:54:36.539Z,94.64
2023-03-28T09:57:11.743Z,95.87
2023-03-28T09:59:58.576Z,97.38
2023-03-28T10:02:33.772Z,98.98
2023-03-28T10:05:47.605Z,99.18
2023-03-28T10:08:46.530Z,98.91
2023-03-28T10:11:33.646Z,99.96
2023-03-28T10:14:06.923Z,99.27
2023-03-28T10:16:54.659Z,99.92
2023-03-28T10:19:33.374Z,96.36
2023-03-28T10:22:45.545Z,95.75
2023-03-28T10:25:35.542Z,96.13
2023-03-28T10:28:40.546Z,95.69
2023-03-28T10:31:38.594Z,97.16
2023-03-28T10:34:43.555Z,98.84
2023-03-28T10:37:35.585Z,99.63
2023-03-28T10:40:30.149Z,100.00
2023-03-28T10:43:20.575Z,100.00
2023-03-28T10:45:54.698Z,99.72
2023-03-28T10:48:43.588Z,98.28
2023-03-28T10:51:24.750Z,97.65
2023-03-28T10:54:33.563Z,95.94
2023-03-28T10:57:13.858Z,97.28
2023-03-28T11:00:16.580Z,97.69
2023-03-28T11:03:02.910Z,97.04
2023-03-28T11:06:08.536Z,93.45
2023-03-28T11:09:11.605Z,94.98
2023-03-28T11:12:28.002Z,92.04
2023-03-28T11:15:05.837Z,96.04
2023-03-28T11:18:32.579Z,96.68
2023-03-28T11:21:31.567Z,94.59
2023-03-28T11:24:44.573Z,93.46
2023-03-28T11:27:39.567Z,92.22
2023-03-28T11:30:39.576Z,90.12
2023-03-28T11:33:32.655Z,90.98
2023-03-28T11:36:35.629Z,91.68
2023-03-28T11:39:41.567Z,88.03
2023-03-28T11:42:24.851Z,90.52
2023-03-28T11:45:33.931Z,83.38
2023-03-28T11:48:33.593Z,83.45
2023-03-28T11:51:49.586Z,80.34
2023-03-28T11:54:51.593Z,81.51
2023-03-28T11:57:25.123Z,83.45
2023-03-28T12:00:32.154Z,81.52
2023-03-28T12:03:22.113Z,82.80
2023-03-28T12:06:11.557Z,85.55
2023-03-28T12:08:59.732Z,85.84
2023-03-28T12:11:54.578Z,81.82
2023-03-28T12:14:33.741Z,82.58
2023-03-28T12:17:46.639Z,84.12
2023-03-28T12:20:56.140Z,81.74
2023-03-28T12:24:04.579Z,82.74
2023-03-28T12:27:19.594Z,83.10
2023-03-28T12:30:33.589Z,84.59
2023-03-28T12:33:22.838Z,85.54
2023-03-28T12:36:36.601Z,87.17
2023-03-28T12:39:41.597Z,88.05
2023-03-28T12:42:20.754Z,89.78
2023-03-28T12:45:13.605Z,90.32
2023-03-28T12:47:55.883Z,89.39
2023-03-28T12:51:17.607Z,88.62
2023-03-28T12:53:53.724Z,89.25
2023-03-28T12:56:41.687Z,85.82
2023-03-28T12:59:49.616Z,84.94
2023-03-28T13:03:06.639Z,83.72
2023-03-28T13:06:31.606Z,85.09
2023-03-28T13:09:32.685Z,83.80
2023-03-28T13:12:37.623Z,83.79
2023-03-28T13:15:27.968Z,81.87
2023-03-28T13:18:26.282Z,80.34
2023-03-28T13:21:13.606Z,82.20
2023-03-28T13:23:54.765Z,81.22
2023-03-28T13:27:03.616Z,79.77
2023-03-28T13:30:00.671Z,79.22
2023-03-28T13:33:18.662Z,81.13
2023-03-28T13:36:12.688Z,81.02
2023-03-28T13:39:18.673Z,81.42
2023-03-28T13:42:06.660Z,81.99
2023-03-28T13:44:48.763Z,83.27
2023-03-28T13:47:46.691Z,82.76
2023-03-28T13:50:32.799Z,82.79
2023-03-28T13:53:19.633Z,82.30
2023-03-28T13:55:52.770Z,82.31
2023-03-28T13:58:39.645Z,83.55
2023-03-28T14:01:15.297Z,81.56
2023-03-28T14:04:02.694Z,81.00
2023-03-28T14:06:43.625Z,81.23
2023-03-28T14:09:34.678Z,81.42
2023-03-28T14:12:27.744Z,82.08
2023-03-28T14:15:16.695Z,80.52
2023-03-28T14:17:57.742Z,81.05
2023-03-28T14:20:51.623Z,81.15
2023-03-28T14:23:51.697Z,82.69
2023-03-28T14:26:41.673Z,82.37
2023-03-28T14:29:26.666Z,80.95
2023-03-28T14:32:50.678Z,83.16
2023-03-28T14:35:52.708Z,81.65
2023-03-28T14:38:51.675Z,82.17
2023-03-28T14:41:49.641Z,84.26
2023-03-28T14:44:38.667Z,82.94
2023-03-28T14:47:12.760Z,84.42
2023-03-28T14:50:00.689Z,84.41
2023-03-28T14:52:41.088Z,85.51
2023-03-28T14:55:32.669Z,88.06
2023-03-28T14:58:14.668Z,90.24
2023-03-28T15:01:12.711Z,93.22
2023-03-28T15:04:04.689Z,92.76
2023-03-28T15:06:40.769Z,92.99
2023-03-28T15:09:39.702Z,94.13
2023-03-28T15:12:15.232Z,94.96
2023-03-28T15:15:01.695Z,94.60
2023-03-28T15:17:41.741Z,95.00
2023-03-28T15:20:34.674Z,94.16
2023-03-28T15:23:11.797Z,94.11
2023-03-28T15:25:59.699Z,94.53
2023-03-28T15:28:35.161Z,94.45
2023-03-28T15:31:23.765Z,93.47
2023-03-28T15:33:58.758Z,93.59
2023-03-28T15:37:02.672Z,94.58
2023-03-28T15:39:57.691Z,95.93
2023-03-28T15:42:44.678Z,96.53
2023-03-28T15:45:27.126Z,97.98
2023-03-28T15:48:21.688Z,98.13
2023-03-28T15:51:04.667Z,99.72
2023-03-28T15:54:00.665Z,99.92
2023-03-28T15:56:52.771Z,100.00
2023-03-28T15:59:36.076Z,99.24
2023-03-28T16:02:31.786Z,98.69
2023-03-28T16:05:11.015Z,98.11
2023-03-28T16:07:57.759Z,97.79
2023-03-28T16:10:38.683Z,97.81
2023-03-28T16:13:32.678Z,97.40
2023-03-28T16:16:39.828Z,96.12
2023-03-28T16:19:34.056Z,96.31
2023-03-28T16:22:14.704Z,95.76
2023-03-28T16:25:08.714Z,95.79
2023-03-28T16:28:02.719Z,95.65
2023-03-28T16:30:47.730Z,94.90
2023-03-28T16:33:27.701Z,95.42
2023-03-28T16:36:08.932Z,95.07
2023-03-28T16:39:02.668Z,94.65
2023-03-28T16:41:49.702Z,94.81
2023-03-28T16:44:29.698Z,95.54
2023-03-28T16:47:23.780Z,96.77
2023-03-28T16:50:11.698Z,95.96
2023-03-28T16:52:45.783Z,95.67
2023-03-28T16:55:32.688Z,97.03
2023-03-28T16:58:05.822Z,97.04
2023-03-28T17:00:52.802Z,98.06
2023-03-28T17:03:25.923Z,97.94
2023-03-28T17:06:16.723Z,98.99
2023-03-28T17:08:53.234Z,99.01
2023-03-28T17:11:39.691Z,99.87
2023-03-28T17:14:12.847Z,100.00
2023-03-28T17:16:59.725Z,99.86
2023-03-28T17:19:39.743Z,100.00
2023-03-28T17:22:27.747Z,100.00
2023-03-28T17:25:08.707Z,100.00
2023-03-28T17:27:55.767Z,100.00
2023-03-28T17:30:35.798Z,100.00
2023-03-28T17:33:30.701Z,100.00
2023-03-28T17:36:42.411Z,99.13
2023-03-28T17:39:35.757Z,98.62
2023-03-28T17:42:29.773Z,98.78
2023-03-28T17:45:17.673Z,97.78
2023-03-28T17:47:57.783Z,97.75
2023-03-28T17:50:45.749Z,97.99
2023-03-28T17:53:25.742Z,97.63
2023-03-28T17:56:13.778Z,97.87
2023-03-28T17:58:46.993Z,98.38
2023-03-28T18:01:33.835Z,98.23
2023-03-28T18:04:06.990Z,98.68
2023-03-28T18:06:53.750Z,98.63
2023-03-28T18:09:28.519Z,99.52
2023-03-28T18:12:15.756Z,99.67
2023-03-28T18:14:49.223Z,100.00
2023-03-28T18:17:35.777Z,100.00
2023-03-28T18:20:08.894Z,100.00
2023-03-28T18:22:55.746Z,100.00
2023-03-28T18:25:32.883Z,100.00
2023-03-28T18:28:19.768Z,100.00
2023-03-28T18:30:52.892Z,100.00
2023-03-28T18:33:39.774Z,100.00
2023-03-28T18:36:20.831Z,100.00
2023-03-28T18:39:14.704Z,100.00
2023-03-28T18:42:01.757Z,100.00
2023-03-28T18:44:37.045Z,100.00
2023-03-28T18:47:25.030Z,100.00
2023-03-28T18:50:07.749Z,100.00
2023-03-28T18:53:02.119Z,100.00
2023-03-28T18:55:55.767Z,100.00
2023-03-28T18:58:50.828Z,100.00
2023-03-28T19:01:39.023Z,100.00
2023-03-28T19:04:19.959Z,100.00
2023-03-28T19:07:06.773Z,100.00
2023-03-28T19:09:46.807Z,100.00
2023-03-28T19:12:40.781Z,100.00
2023-03-28T19:15:29.638Z,100.00
2023-03-28T19:18:10.826Z,100.00
2023-03-28T19:21:04.795Z,100.00
2023-03-28T19:23:53.757Z,100.00
2023-03-28T19:26:27.362Z,100.00
2023-03-28T19:29:13.757Z,100.00
2023-03-28T19:31:46.958Z,100.00
2023-03-28T19:34:34.775Z,100.00
2023-03-28T19:37:08.126Z,100.00
2023-03-28T19:39:54.776Z,100.00
2023-03-28T19:42:34.773Z,100.00
2023-03-28T19:45:21.961Z,100.00
2023-03-28T19:47:55.995Z,100.00
2023-03-28T19:50:43.892Z,100.00
2023-03-28T19:53:24.816Z,100.00
2023-03-28T19:56:13.862Z,100.00
2023-03-28T19:58:46.915Z,100.00
2023-03-28T20:01:33.900Z,100.00
2023-03-28T20:04:06.915Z,100.00
2023-03-28T20:06:56.816Z,100.00
2023-03-28T20:09:29.917Z,100.00
2023-03-28T20:12:16.773Z,100.00
2023-03-28T20:14:57.775Z,100.00
2023-03-28T20:17:52.859Z,100.00
2023-03-28T20:20:39.773Z,100.00
2023-03-28T20:23:20.831Z,100.00
2023-03-28T20:26:14.806Z,100.00
2023-03-28T20:29:05.891Z,100.00
2023-03-28T20:31:38.935Z,100.00
2023-03-28T20:34:25.771Z,100.00
2023-03-28T20:37:05.834Z,99.12
2023-03-28T20:39:59.753Z,98.55
2023-03-28T20:42:47.879Z,99.38
2023-03-28T20:45:30.791Z,98.87
2023-03-28T20:48:26.521Z,98.24
2023-03-28T20:51:20.776Z,98.72
2023-03-28T20:53:55.881Z,98.70
2023-03-28T20:56:42.870Z,98.48
2023-03-28T20:59:15.940Z,98.50
2023-03-28T21:02:02.778Z,98.42
2023-03-28T21:04:36.392Z,98.38
2023-03-28T21:07:22.772Z,99.36
2023-03-28T21:09:56.042Z,98.55
2023-03-28T21:12:42.797Z,99.42
2023-03-28T21:15:28.920Z,99.41
2023-03-28T21:18:22.781Z,99.37
2023-03-28T21:21:17.868Z,100.00
2023-03-28T21:24:11.884Z,100.00
2023-03-28T21:27:05.829Z,100.00
2023-03-28T21:29:59.843Z,100.00
2023-03-28T21:32:53.904Z,100.00
2023-03-28T21:35:41.820Z,100.00
2023-03-28T21:38:35.956Z,100.00
2023-03-28T21:41:22.880Z,100.00
2023-03-28T21:43:57.127Z,100.00
2023-03-28T21:46:43.828Z,100.00
2023-03-28T21:49:19.358Z,100.00
2023-03-28T21:52:05.914Z,100.00
2023-03-28T21:54:38.883Z,100.00
2023-03-28T21:57:25.898Z,100.00
2023-03-28T21:59:58.889Z,100.00
2023-03-28T22:02:45.868Z,100.00
2023-03-28T22:05:28.633Z,100.00
2023-03-28T22:08:18.842Z,100.00
2023-03-28T22:10:54.915Z,100.00
2023-03-28T22:13:41.853Z,100.00
2023-03-28T22:16:16.148Z,100.00
2023-03-28T22:19:03.821Z,100.00
2023-03-28T22:21:37.995Z,100.00
2023-03-28T22:24:24.798Z,100.00
2023-03-28T22:26:58.018Z,100.00
2023-03-28T22:29:44.832Z,100.00
2023-03-28T22:32:17.951Z,100.00
2023-03-28T22:35:04.882Z,100.00
2023-03-28T22:37:44.829Z,99.62
2023-03-28T22:40:31.934Z,99.27
2023-03-28T22:43:05.913Z,98.87
2023-03-28T22:45:52.880Z,98.42
2023-03-28T22:48:30.035Z,98.52
2023-03-28T22:51:21.831Z,97.81
2023-03-28T22:53:56.209Z,97.23
2023-03-28T22:56:42.882Z,96.85
2023-03-28T22:59:22.836Z,95.90
2023-03-28T23:02:16.867Z,96.31
2023-03-28T23:05:11.873Z,96.05
2023-03-28T23:08:00.832Z,95.17
2023-03-28T23:10:34.006Z,94.93
2023-03-28T23:13:20.826Z,93.75
2023-03-28T23:16:01.937Z,93.16
2023-03-28T23:18:49.882Z,93.00
2023-03-28T23:21:24.528Z,93.15
2023-03-28T23:24:10.831Z,92.90
2023-03-28T23:26:51.827Z,92.91
2023-03-28T23:29:38.828Z,92.23
2023-03-28T23:32:11.935Z,91.62
2023-03-28T23:34:59.862Z,92.89
2023-03-28T23:37:40.853Z,91.94
2023-03-28T23:40:27.850Z,91.02
2023-03-28T23:43:01.013Z,90.62
2023-03-28T23:45:47.892Z,89.43
2023-03-28T23:48:21.124Z,90.11
2023-03-28T23:51:10.864Z,90.34
2023-03-28T23:53:50.855Z,88.96
2023-03-28T23:56:44.941Z,89.08
2023-03-28T23:59:31.823Z,88.60
